Time;durP1;ratioP1;P1;durP2;ratioP2;P2;SDS_P1;SDS_P2;PMS_P1;PMS_P2;Temp;Humidity;BMP_temperature;BMP_pressure;BME280_temperature;BME280_humidity;BME280_pressure;Samples;Min_cycle;Max_cycle;Signal;HPM_P1;HPM_P2
2022/10/15 00:01:59;;;;;;;;;;;;;;;9.50;82.02;99554.59;1670688;84;20432;-74
2022/10/15 00:04:25;;;;;;;;;;;;;;;9.49;82.10;99552.95;1680948;84;20475;-74
2022/10/15 00:06:51;;;;;;;;;;;;;;;9.50;82.11;99551.93;1704622;84;20146;-75
2022/10/15 00:09:17;;;;;;;;;;;;;;;9.50;82.11;99550.11;1663169;85;21163;-74
2022/10/15 00:11:43;;;;;;;;;;;;;;;9.49;82.07;99549.77;1663290;85;20138;-74
2022/10/15 00:14:11;;;;;;;;;;;;;;;9.48;82.06;99551.27;1662988;85;20115;-74
2022/10/15 00:16:38;;;;;;;;;;;;;;;9.48;82.07;99547.28;1662930;85;20099;-74
2022/10/15 00:19:06;;;;;;;;;;;;;;;9.48;82.03;99546.80;1682685;85;20400;-74
2022/10/15 00:21:33;;;;;;;;;;;;;;;9.48;82.00;99551.27;1663113;85;21229;-74
2022/10/15 00:23:59;;;;;;;;;;;;;;;9.47;81.93;99550.92;1663025;85;20075;-74
2022/10/15 00:26:26;;;;;;;;;;;;;;;9.45;81.90;99546.27;1662152;86;20214;-74
2022/10/15 00:28:55;;;;;;;;;;;;;;;9.44;81.85;99548.09;1661147;86;20140;-74
2022/10/15 00:31:23;;;;;;;;;;;;;;;9.42;81.81;99543.94;1661169;86;20127;-73
2022/10/15 00:33:50;;;;;;;;;;;;;;;9.38;81.78;99544.78;1665083;86;21133;-74
2022/10/15 00:36:21;;;;;;;;;;;;;;;9.35;81.82;99538.95;1665852;86;20122;-75
2022/10/15 00:38:49;;;;;;;;;;;;;;;9.33;81.84;99538.28;1664710;86;20425;-74
2022/10/15 00:41:23;;;;;;;;;;;;;;;9.30;81.81;99539.44;1667287;85;20132;-74
2022/10/15 00:43:54;;;;;;;;;;;;;;;9.26;81.78;99540.23;1667464;85;20092;-75
2022/10/15 00:46:39;;;;;;;;;;;;;;;9.21;81.77;99540.38;1667447;86;21800;-75
2022/10/15 00:49:20;;;;;;;;;;;;;;;9.15;81.78;99540.52;1664636;86;20166;-75
2022/10/15 00:51:52;;;;;;;;;;;;;;;9.10;81.82;99540.17;1666136;86;20493;-75
2022/10/15 00:54:18;;;;;;;;;;;;;;;9.05;81.85;99537.66;1667462;85;20076;-75
2022/10/15 00:56:44;;;;;;;;;;;;;;;9.00;81.84;99545.26;1662926;86;20155;-75
2022/10/15 00:59:11;;;;;;;;;;;;;;;8.97;81.90;99542.43;1667525;86;21345;-74
2022/10/15 01:01:37;;;;;;;;;;;;;;;8.95;81.93;99549.72;1667227;86;20151;-73
2022/10/15 01:04:04;;;;;;;;;;;;;;;8.93;82.00;99542.42;1662859;86;20090;-74
2022/10/15 01:06:30;;;;;;;;;;;;;;;8.92;82.09;99539.42;1663867;86;20131;-74
2022/10/15 01:08:58;;;;;;;;;;;;;;;8.90;82.14;99536.11;1662300;86;20152;-74
2022/10/15 01:11:47;;;;;;;;;;;;;;;8.89;82.22;99532.30;1667412;86;21166;-74
2022/10/15 01:14:37;;;;;;;;;;;;;;;8.85;82.24;99542.38;1666731;86;20120;-74
2022/10/15 01:17:28;;;;;;;;;;;;;;;8.79;82.40;99540.83;1667336;85;20087;-74
2022/10/15 01:20:16;;;;;;;;;;;;;;;8.76;82.59;99545.16;1666770;86;20155;-74
2022/10/15 01:23:04;;;;;;;;;;;;;;;8.75;82.76;99543.48;1665718;85;20147;-74
2022/10/15 01:25:44;;;;;;;;;;;;;;;8.73;82.87;99538.83;1664776;86;21827;-74
2022/10/15 01:28:29;;;;;;;;;;;;;;;8.71;83.07;99542.14;1626315;86;20105;-75
2022/10/15 01:31:01;;;;;;;;;;;;;;;8.70;83.23;99545.28;1646657;86;20131;-74
2022/10/15 01:33:40;;;;;;;;;;;;;;;8.71;83.34;99550.10;1643410;86;20425;-75
2022/10/15 01:36:10;;;;;;;;;;;;;;;8.72;83.44;99543.79;1647792;85;20415;-74
2022/10/15 01:39:00;;;;;;;;;;;;;;;8.73;83.52;99546.79;1670140;86;21265;-75
2022/10/15 01:41:40;;;;;;;;;;;;;;;8.73;83.56;99546.30;1647507;84;20466;-74
2022/10/15 01:44:09;;;;;;;;;;;;;;;8.72;83.70;99545.11;1689324;84;20088;-74
2022/10/15 01:46:57;;;;;;;;;;;;;;;8.73;83.79;99542.33;1595674;89;20166;-74
2022/10/15 01:49:25;;;;;;;;;;;;;;;8.74;83.86;99540.48;1633754;86;20124;-74
2022/10/15 01:51:52;;;;;;;;;;;;;;;8.75;83.93;99544.31;1643316;86;21302;-74
2022/10/15 01:54:19;;;;;;;;;;;;;;;8.76;83.95;99544.63;1643407;86;20104;-74
2022/10/15 01:56:48;;;;;;;;;;;;;;;8.74;83.98;99542.64;1662444;86;20530;-74
2022/10/15 01:59:22;;;;;;;;;;;;;;;8.74;84.02;99540.48;1661352;85;20128;-74
2022/10/15 02:01:49;;;;;;;;;;;;;;;8.73;84.06;99540.16;1655757;84;20095;-73
2022/10/15 02:04:18;;;;;;;;;;;;;;;8.72;84.11;99539.81;1668696;85;21873;-73
2022/10/15 02:07:07;;;;;;;;;;;;;;;8.71;84.18;99542.95;1670432;85;20249;-73
2022/10/15 02:09:53;;;;;;;;;;;;;;;8.71;84.17;99535.52;1665179;85;20092;-74
2022/10/15 02:12:40;;;;;;;;;;;;;;;8.67;84.19;99531.84;1670913;85;20180;-74
2022/10/15 02:15:24;;;;;;;;;;;;;;;8.64;84.25;99529.50;1668162;85;20120;-73
2022/10/15 02:17:54;;;;;;;;;;;;;;;8.61;84.33;99528.97;1669021;85;21202;-74
2022/10/15 02:20:30;;;;;;;;;;;;;;;8.61;84.40;99531.13;1669987;85;20104;-74
2022/10/15 02:23:06;;;;;;;;;;;;;;;8.60;84.33;99528.13;1677393;85;20089;-74
2022/10/15 02:25:32;;;;;;;;;;;;;;;8.60;84.32;99535.28;1670452;85;20101;-74
2022/10/15 02:27:59;;;;;;;;;;;;;;;8.59;84.32;99530.47;1686383;85;20116;-74
2022/10/15 02:30:26;;;;;;;;;;;;;;;8.57;84.31;99527.63;1692812;84;21234;-74
2022/10/15 02:32:54;;;;;;;;;;;;;;;8.54;84.30;99528.78;1691413;84;20087;-75
2022/10/15 02:35:21;;;;;;;;;;;;;;;8.51;84.27;99524.27;1690896;85;20087;-75
2022/10/15 02:37:49;;;;;;;;;;;;;;;8.47;84.27;99527.72;1693184;84;20078;-75
2022/10/15 02:40:18;;;;;;;;;;;;;;;8.43;84.26;99528.19;1685011;84;20122;-76
2022/10/15 02:42:46;;;;;;;;;;;;;;;8.41;84.31;99531.50;1688925;84;21168;-75
2022/10/15 02:45:12;;;;;;;;;;;;;;;8.39;84.32;99536.97;1662673;84;20459;-74
2022/10/15 02:47:40;;;;;;;;;;;;;;;8.41;84.27;99540.29;1698058;84;20120;-75
2022/10/15 02:50:07;;;;;;;;;;;;;;;8.39;84.34;99540.94;1687382;85;20107;-75
2022/10/15 02:52:33;;;;;;;;;;;;;;;8.39;84.41;99545.41;1663267;85;20086;-75
2022/10/15 02:55:00;;;;;;;;;;;;;;;8.37;84.46;99541.56;1684315;84;21158;-74
2022/10/15 02:57:26;;;;;;;;;;;;;;;8.35;84.47;99532.94;1691059;83;20090;-74
2022/10/15 02:59:52;;;;;;;;;;;;;;;8.33;84.46;99534.92;1663152;85;20078;-74
2022/10/15 03:02:19;;;;;;;;;;;;;;;8.31;84.43;99536.91;1663114;85;20094;-74
2022/10/15 03:04:45;;;;;;;;;;;;;;;8.27;84.42;99545.30;1678739;85;20182;-74
2022/10/15 03:07:13;;;;;;;;;;;;;;;8.23;84.49;99536.81;1666869;85;21289;-74
2022/10/15 03:09:39;;;;;;;;;;;;;;;8.20;84.54;99549.03;1663067;85;20086;-74
2022/10/15 03:12:06;;;;;;;;;;;;;;;8.18;84.62;99543.06;1686214;84;20091;-74
2022/10/15 03:14:33;;;;;;;;;;;;;;;8.16;84.70;99541.03;1688843;84;20119;-74
2022/10/15 03:17:01;;;;;;;;;;;;;;;8.13;84.79;99540.05;1663149;85;20106;-74
2022/10/15 03:19:29;;;;;;;;;;;;;;;8.13;84.87;99540.05;1676743;84;20564;-74
2022/10/15 03:21:56;;;;;;;;;;;;;;;8.11;84.88;99543.83;1678735;84;20463;-74
2022/10/15 03:24:22;;;;;;;;;;;;;;;8.09;84.96;99547.45;1663107;85;20118;-73
2022/10/15 03:26:48;;;;;;;;;;;;;;;8.09;85.03;99544.80;1664260;85;20178;-74
2022/10/15 03:29:15;;;;;;;;;;;;;;;8.09;85.03;99539.99;1670599;86;20245;-74
2022/10/15 03:31:43;;;;;;;;;;;;;;;8.05;85.09;99536.84;1670087;86;21275;-73
2022/10/15 03:34:09;;;;;;;;;;;;;;;8.04;85.17;99535.16;1670459;86;20134;-73
2022/10/15 03:36:35;;;;;;;;;;;;;;;8.03;85.15;99540.59;1670474;86;20237;-74
2022/10/15 03:39:04;;;;;;;;;;;;;;;8.01;85.24;99535.95;1670402;85;20159;-73
2022/10/15 03:41:31;;;;;;;;;;;;;;;8.02;85.28;99528.35;1671988;85;20134;-74
2022/10/15 03:44:00;;;;;;;;;;;;;;;8.03;85.28;99528.19;1679470;84;21168;-74
2022/10/15 03:46:27;;;;;;;;;;;;;;;8.04;85.23;99532.52;1670545;85;21117;-74
2022/10/15 03:48:53;;;;;;;;;;;;;;;8.03;85.24;99528.67;1670631;86;20146;-74
2022/10/15 03:51:19;;;;;;;;;;;;;;;8.02;85.25;99532.33;1670388;86;20177;-74
2022/10/15 03:53:46;;;;;;;;;;;;;;;8.01;85.25;99524.02;1670554;86;20491;-74
2022/10/15 03:56:13;;;;;;;;;;;;;;;7.97;85.23;99526.16;1670603;86;21151;-74
2022/10/15 03:58:40;;;;;;;;;;;;;;;7.96;85.28;99528.47;1670467;86;20176;-74
2022/10/15 04:01:09;;;;;;;;;;;;;;;7.95;85.28;99535.25;1670368;86;20467;-74
2022/10/15 04:03:36;;;;;;;;;;;;;;;7.91;85.32;99529.41;1641401;86;20242;-74
2022/10/15 04:06:03;;;;;;;;;;;;;;;7.89;85.37;99529.23;1670498;86;20118;-74
2022/10/15 04:08:30;;;;;;;;;;;;;;;7.87;85.44;99529.36;1670560;86;21152;-74
2022/10/15 04:10:58;;;;;;;;;;;;;;;7.87;85.43;99533.85;1670400;86;20154;-74
2022/10/15 04:13:25;;;;;;;;;;;;;;;7.87;85.46;99529.36;1670541;85;20209;-75
2022/10/15 04:15:52;;;;;;;;;;;;;;;7.87;85.50;99525.39;1670448;86;20178;-75
2022/10/15 04:18:20;;;;;;;;;;;;;;;7.89;85.42;99534.52;1670470;85;20126;-75
2022/10/15 04:20:49;;;;;;;;;;;;;;;7.85;85.36;99530.02;1670533;86;21232;-74
2022/10/15 04:23:17;;;;;;;;;;;;;;;7.81;85.40;99526.02;1670197;86;20611;-74
2022/10/15 04:25:46;;;;;;;;;;;;;;;7.79;85.46;99520.05;1667607;86;20122;-74
2022/10/15 04:28:12;;;;;;;;;;;;;;;7.76;85.48;99520.83;1671395;84;20102;-75
2022/10/15 04:30:40;;;;;;;;;;;;;;;7.73;85.49;99527.75;1663104;85;20086;-75
2022/10/15 04:33:08;;;;;;;;;;;;;;;7.71;85.57;99531.05;1677237;84;21206;-75
2022/10/15 04:35:35;;;;;;;;;;;;;;;7.71;85.62;99523.10;1685438;84;20568;-75
2022/10/15 04:38:06;;;;;;;;;;;;;;;7.70;85.54;99528.05;1675362;84;20486;-75
2022/10/15 04:40:41;;;;;;;;;;;;;;;7.68;85.57;99523.39;1670526;83;20086;-75
2022/10/15 04:43:08;;;;;;;;;;;;;;;7.65;85.58;99523.20;1684183;85;20115;-74
2022/10/15 04:45:36;;;;;;;;;;;;;;;7.66;85.65;99523.56;1696247;84;21920;-75
2022/10/15 04:48:02;;;;;;;;;;;;;;;7.66;85.65;99528.02;1705300;84;20090;-74
2022/10/15 04:50:29;;;;;;;;;;;;;;;7.66;85.72;99529.34;1663526;84;20142;-75
2022/10/15 04:53:16;;;;;;;;;;;;;;;7.68;85.75;99526.05;1664029;84;20133;-74
2022/10/15 04:55:43;;;;;;;;;;;;;;;7.72;85.80;99532.69;1691383;84;20118;-75
2022/10/15 04:58:10;;;;;;;;;;;;;;;7.77;85.92;99528.61;1663002;85;21099;-74
2022/10/15 05:00:37;;;;;;;;;;;;;;;7.85;86.00;99527.36;1673638;84;20122;-75
2022/10/15 05:03:22;;;;;;;;;;;;;;;7.97;86.05;99527.98;1675120;84;20139;-75
2022/10/15 05:05:51;;;;;;;;;;;;;;;8.13;86.08;99526.80;1671887;85;20126;-74
2022/10/15 05:08:20;;;;;;;;;;;;;;;8.28;86.12;99526.61;1663036;85;20103;-75
2022/10/15 05:10:48;;;;;;;;;;;;;;;8.46;86.12;99530.05;1639478;85;21264;-75
2022/10/15 05:13:17;;;;;;;;;;;;;;;8.68;85.96;99528.18;1662978;85;20436;-74
2022/10/15 05:15:43;;;;;;;;;;;;;;;8.91;85.73;99524.52;1664144;85;20118;-74
2022/10/15 05:18:09;;;;;;;;;;;;;;;9.11;85.31;99527.25;1655148;85;20127;-74
2022/10/15 05:20:41;;;;;;;;;;;;;;;9.36;84.92;99522.03;1701401;84;20094;-74
2022/10/15 05:23:10;;;;;;;;;;;;;;;9.59;84.40;99521.76;1698947;84;22094;-74
2022/10/15 05:25:38;;;;;;;;;;;;;;;9.81;83.78;99524.61;1671283;85;20122;-75
2022/10/15 05:28:06;;;;;;;;;;;;;;;10.06;82.92;99531.28;1696378;84;20185;-76
2022/10/15 05:30:33;;;;;;;;;;;;;;;10.26;81.67;99525.98;1705419;84;20121;-74
2022/10/15 05:33:02;;;;;;;;;;;;;;;10.41;80.60;99534.95;1692911;84;20110;-73
2022/10/15 05:35:29;;;;;;;;;;;;;;;10.51;79.47;99527.62;1663080;85;21169;-76
2022/10/15 05:37:59;;;;;;;;;;;;;;;10.67;78.78;99530.25;1682487;85;20094;-75
2022/10/15 05:40:27;;;;;;;;;;;;;;;10.86;77.61;99527.22;1663053;85;20150;-75
2022/10/15 05:43:07;;;;;;;;;;;;;;;11.04;76.77;99521.67;1683550;85;20103;-75
2022/10/15 05:45:34;;;;;;;;;;;;;;;11.24;75.67;99520.24;1690901;85;20079;-76
2022/10/15 05:48:04;;;;;;;;;;;;;;;11.43;74.75;99517.16;1703703;84;21156;-74
2022/10/15 05:50:31;;;;;;;;;;;;;;;11.67;74.00;99518.36;1701065;84;20103;-75
2022/10/15 05:52:57;;;;;;;;;;;;;;;11.98;73.21;99514.34;1674075;85;20098;-74
2022/10/15 05:55:42;;;;;;;;;;;;;;;12.29;71.96;99515.08;1685724;84;20444;-75
2022/10/15 05:58:08;;;;;;;;;;;;;;;12.59;70.53;99516.48;1705410;84;20126;-73
2022/10/15 06:00:35;;;;;;;;;;;;;;;12.81;69.34;99516.41;1691548;84;21066;-74
2022/10/15 06:03:02;;;;;;;;;;;;;;;13.05;68.53;99510.45;1690678;85;20088;-74
2022/10/15 06:05:28;;;;;;;;;;;;;;;13.30;67.49;99512.67;1667002;85;20106;-75
2022/10/15 06:07:55;;;;;;;;;;;;;;;13.54;66.46;99516.36;1682638;84;20463;-75
2022/10/15 06:10:22;;;;;;;;;;;;;;;13.85;65.94;99515.23;1694127;84;20473;-75
2022/10/15 06:12:50;;;;;;;;;;;;;;;14.19;64.75;99527.41;1690826;85;20112;-75
2022/10/15 06:15:18;;;;;;;;;;;;;;;14.50;63.63;99527.91;1700898;84;20161;-75
2022/10/15 06:17:49;;;;;;;;;;;;;;;14.80;62.27;99521.86;1663295;85;20111;-75
2022/10/15 06:20:13;;;;;;;;;;;;;;;14.99;61.05;99529.70;1679401;85;20103;-74
2022/10/15 06:22:40;;;;;;;;;;;;;;;15.20;59.94;99521.04;1704535;84;20179;-74
2022/10/15 06:25:07;;;;;;;;;;;;;;;15.29;59.17;99523.05;1682808;84;21145;-74
2022/10/15 06:27:34;;;;;;;;;;;;;;;15.48;58.81;99521.00;1682551;85;20094;-74
2022/10/15 06:30:00;;;;;;;;;;;;;;;15.78;58.01;99529.03;1661330;84;20131;-75
2022/10/15 06:32:26;;;;;;;;;;;;;;;16.09;57.09;99523.11;1686235;84;20131;-75
2022/10/15 06:34:54;;;;;;;;;;;;;;;16.30;56.01;99520.75;1682339;84;20159;-76
2022/10/15 06:37:20;;;;;;;;;;;;;;;16.49;55.32;99529.33;1683615;84;21123;-75
2022/10/15 06:39:47;;;;;;;;;;;;;;;16.76;54.48;99535.55;1694415;84;20167;-75
2022/10/15 06:42:13;;;;;;;;;;;;;;;16.85;53.44;99530.25;1694375;84;20433;-74
2022/10/15 06:44:39;;;;;;;;;;;;;;;16.95;53.11;99524.76;1694425;84;20100;-75
2022/10/15 06:47:06;;;;;;;;;;;;;;;17.12;52.40;99520.60;1670909;84;20117;-75
2022/10/15 06:49:33;;;;;;;;;;;;;;;17.20;52.27;99524.41;1694517;84;21186;-75
2022/10/15 06:51:59;;;;;;;;;;;;;;;17.40;51.69;99524.84;1694315;84;20089;-75
2022/10/15 06:54:25;;;;;;;;;;;;;;;17.59;51.15;99533.38;1694466;84;20132;-74
2022/10/15 06:56:51;;;;;;;;;;;;;;;17.65;50.76;99536.57;1694499;84;20102;-74
2022/10/15 06:59:18;;;;;;;;;;;;;;;17.78;50.12;99537.30;1694478;84;20089;-74
2022/10/15 07:01:44;;;;;;;;;;;;;;;17.99;50.06;99538.84;1694402;84;21259;-75
2022/10/15 07:04:11;;;;;;;;;;;;;;;18.21;49.03;99538.81;1683584;84;20123;-76
2022/10/15 07:06:39;;;;;;;;;;;;;;;18.27;48.93;99536.61;1681977;84;20089;-75
2022/10/15 07:09:08;;;;;;;;;;;;;;;18.35;48.54;99534.96;1686508;84;20136;-75
2022/10/15 07:11:35;;;;;;;;;;;;;;;18.47;48.08;99532.44;1683264;83;20156;-75
2022/10/15 07:14:01;;;;;;;;;;;;;;;18.48;47.77;99540.28;1666899;84;21666;-76
2022/10/15 07:16:29;;;;;;;;;;;;;;;18.30;47.44;99533.45;1694194;84;20103;-75
2022/10/15 07:18:56;;;;;;;;;;;;;;;17.99;47.98;99529.97;1694459;84;20173;-76
2022/10/15 07:21:23;;;;;;;;;;;;;;;17.96;47.93;99537.13;1694435;84;20097;-76
2022/10/15 07:23:50;;;;;;;;;;;;;;;17.85;47.91;99533.25;1694442;84;20149;-76
2022/10/15 07:26:17;;;;;;;;;;;;;;;17.72;48.13;99556.19;1694360;84;21844;-75
2022/10/15 07:28:43;;;;;;;;;;;;;;;17.62;48.21;99534.30;1696498;83;20082;-75
2022/10/15 07:31:09;;;;;;;;;;;;;;;17.61;48.27;99553.64;1692025;84;20127;-75
2022/10/15 07:33:37;;;;;;;;;;;;;;;17.60;48.53;99537.19;1689868;84;20091;-76
2022/10/15 07:36:05;;;;;;;;;;;;;;;17.76;48.45;99543.94;1673119;84;20261;-74
2022/10/15 07:38:32;;;;;;;;;;;;;;;17.89;47.80;99541.19;1686135;84;21092;-74
2022/10/15 07:40:59;;;;;;;;;;;;;;;17.86;48.08;99549.69;1682662;85;20096;-75
2022/10/15 07:43:26;;;;;;;;;;;;;;;17.99;47.65;99556.88;1687781;85;20151;-76
2022/10/15 07:45:53;;;;;;;;;;;;;;;18.01;47.53;99540.82;1676837;84;20090;-75
2022/10/15 07:48:19;;;;;;;;;;;;;;;18.06;47.74;99550.93;1695235;84;20092;-75
2022/10/15 07:50:49;;;;;;;;;;;;;;;18.03;47.45;99548.15;1688310;84;21780;-75
2022/10/15 07:53:15;;;;;;;;;;;;;;;18.08;47.52;99546.98;1672321;84;20102;-74
2022/10/15 07:55:42;;;;;;;;;;;;;;;18.08;47.67;99549.67;1663014;85;20114;-75
2022/10/15 07:58:08;;;;;;;;;;;;;;;18.26;47.29;99559.18;1689948;84;20161;-75
2022/10/15 08:00:34;;;;;;;;;;;;;;;18.30;47.03;99571.70;1691833;84;20143;-75
2022/10/15 08:03:01;;;;;;;;;;;;;;;18.30;46.84;99574.39;1698939;84;21297;-75
2022/10/15 08:05:27;;;;;;;;;;;;;;;18.37;46.95;99557.14;1675604;84;20209;-74
2022/10/15 08:07:53;;;;;;;;;;;;;;;18.52;46.88;99564.09;1705456;84;20094;-75
2022/10/15 08:10:20;;;;;;;;;;;;;;;18.63;46.84;99544.02;1675849;84;20403;-75
2022/10/15 08:12:48;;;;;;;;;;;;;;;18.74;46.66;99547.86;1689791;84;20086;-76
2022/10/15 08:15:16;;;;;;;;;;;;;;;18.78;46.27;99555.78;1663069;85;21747;-75
2022/10/15 08:17:44;;;;;;;;;;;;;;;18.86;46.16;99561.73;1671484;85;20119;-75
2022/10/15 08:20:14;;;;;;;;;;;;;;;18.95;46.01;99546.11;1673478;85;20093;-75
2022/10/15 08:22:40;;;;;;;;;;;;;;;19.11;45.72;99539.59;1665892;85;20169;-78
2022/10/15 08:25:07;;;;;;;;;;;;;;;19.29;45.39;99550.94;1684405;85;20143;-74
2022/10/15 08:27:33;;;;;;;;;;;;;;;19.35;45.00;99547.31;1695450;84;21123;-76
2022/10/15 08:30:03;;;;;;;;;;;;;;;19.42;44.95;99541.34;1678944;84;20129;-73
2022/10/15 08:32:29;;;;;;;;;;;;;;;19.45;44.30;99545.49;1686658;84;20128;-75
2022/10/15 08:34:57;;;;;;;;;;;;;;;19.22;44.81;99548.81;1673580;84;20184;-71
2022/10/15 08:37:23;;;;;;;;;;;;;;;19.15;45.00;99551.28;1687768;84;20517;-73
2022/10/15 08:39:49;;;;;;;;;;;;;;;19.03;45.32;99556.61;1638040;84;21248;-74
2022/10/15 08:42:32;;;;;;;;;;;;;;;19.02;45.63;99545.51;1658823;85;20171;-73
2022/10/15 08:45:04;;;;;;;;;;;;;;;19.19;45.22;99532.28;1645820;85;20429;-74
2022/10/15 08:47:37;;;;;;;;;;;;;;;19.15;45.18;99539.98;1634742;86;20382;-73
2022/10/15 08:50:13;;;;;;;;;;;;;;;19.16;45.61;99545.69;1651524;86;20455;-73
2022/10/15 08:52:47;;;;;;;;;;;;;;;19.35;45.24;99547.31;1656301;86;21177;-74
2022/10/15 08:55:16;;;;;;;;;;;;;;;19.59;45.05;99539.70;1644811;85;20127;-73
2022/10/15 08:57:58;;;;;;;;;;;;;;;19.95;44.65;99535.27;1677094;85;20088;-73
2022/10/15 09:00:37;;;;;;;;;;;;;;;20.22;44.28;99534.67;1641929;85;20153;-73
2022/10/15 09:03:06;;;;;;;;;;;;;;;20.66;43.75;99556.33;1637196;85;20410;-73
2022/10/15 09:05:39;;;;;;;;;;;;;;;21.03;42.51;99542.06;1643107;84;21148;-73
2022/10/15 09:08:09;;;;;;;;;;;;;;;21.26;42.00;99543.95;1688466;84;20085;-74
2022/10/15 09:10:42;;;;;;;;;;;;;;;21.41;41.61;99540.20;1673267;84;20204;-73
2022/10/15 09:13:27;;;;;;;;;;;;;;;21.57;41.02;99531.88;1674120;84;20135;-75
2022/10/15 09:15:59;;;;;;;;;;;;;;;21.73;40.50;99541.95;1674531;84;20175;-72
2022/10/15 09:18:29;;;;;;;;;;;;;;;21.87;40.19;99541.47;1692768;84;21268;-72
2022/10/15 09:20:55;;;;;;;;;;;;;;;22.03;39.68;99543.94;1671049;85;20108;-73
2022/10/15 09:23:24;;;;;;;;;;;;;;;22.18;39.11;99529.83;1681903;84;20120;-73
2022/10/15 09:26:07;;;;;;;;;;;;;;;22.26;39.01;99538.39;1679358;84;20198;-73
2022/10/15 09:28:43;;;;;;;;;;;;;;;22.18;38.82;99527.13;1662750;84;20406;-73
2022/10/15 09:31:12;;;;;;;;;;;;;;;21.93;39.44;99528.30;1651883;85;21181;-73
2022/10/15 09:33:46;;;;;;;;;;;;;;;21.81;39.63;99526.15;1677210;82;20123;-73
2022/10/15 09:36:19;;;;;;;;;;;;;;;21.78;39.88;99530.69;1693120;84;20404;-73
2022/10/15 09:38:59;;;;;;;;;;;;;;;21.98;39.46;99526.20;1692720;84;20573;-72
2022/10/15 09:41:50;;;;;;;;;;;;;;;22.07;39.43;99536.95;1697420;84;20134;-73
2022/10/15 09:44:17;;;;;;;;;;;;;;;22.30;39.00;99539.53;1691163;84;21878;-73
2022/10/15 09:46:46;;;;;;;;;;;;;;;22.46;38.69;99532.48;1666125;84;20438;-73
2022/10/15 09:49:19;;;;;;;;;;;;;;;22.52;38.24;99532.34;1670879;85;20123;-72
2022/10/15 09:52:08;;;;;;;;;;;;;;;22.55;38.22;99533.73;1661695;84;20134;-73
2022/10/15 09:54:47;;;;;;;;;;;;;;;22.58;38.01;99542.70;1674453;84;20436;-74
2022/10/15 09:57:13;;;;;;;;;;;;;;;22.62;38.10;99539.80;1696586;84;21091;-73
2022/10/15 09:59:43;;;;;;;;;;;;;;;22.47;38.30;99536.33;1674366;84;20099;-73
2022/10/15 10:02:17;;;;;;;;;;;;;;;22.37;38.41;99548.32;1683797;84;20440;-75
2022/10/15 10:04:44;;;;;;;;;;;;;;;22.08;38.74;99546.18;1679091;84;20126;-73
2022/10/15 10:07:26;;;;;;;;;;;;;;;21.72;39.59;99545.18;1662141;84;20417;-71
2022/10/15 10:09:55;;;;;;;;;;;;;;;21.46;40.03;99553.84;1618496;85;21929;-73
2022/10/15 10:12:34;;;;;;;;;;;;;;;21.05;40.60;99544.00;1658677;85;20103;-73
2022/10/15 10:15:08;;;;;;;;;;;;;;;20.82;41.17;99556.17;1656006;85;20129;-73
2022/10/15 10:17:35;;;;;;;;;;;;;;;20.53;41.93;99551.14;1675782;85;20094;-73
2022/10/15 10:20:10;;;;;;;;;;;;;;;20.25;42.38;99556.38;1671152;85;20127;-73
2022/10/15 10:22:46;;;;;;;;;;;;;;;20.01;43.08;99535.70;1694027;84;21720;-74
2022/10/15 10:25:37;;;;;;;;;;;;;;;19.97;43.49;99542.63;1667805;85;20136;-72
2022/10/15 10:28:12;;;;;;;;;;;;;;;20.05;43.25;99545.81;1674925;85;20100;-73
2022/10/15 10:31:03;;;;;;;;;;;;;;;20.04;43.15;99539.30;1663360;84;20141;-73
2022/10/15 10:33:38;;;;;;;;;;;;;;;19.94;43.36;99540.39;1654860;85;20125;-73
2022/10/15 10:36:05;;;;;;;;;;;;;;;19.96;43.45;99535.58;1659588;85;21080;-73
2022/10/15 10:38:34;;;;;;;;;;;;;;;19.97;43.69;99531.84;1670957;85;20091;-73
2022/10/15 10:41:10;;;;;;;;;;;;;;;19.97;43.33;99535.88;1685611;84;20122;-73
2022/10/15 10:43:38;;;;;;;;;;;;;;;19.99;43.24;99549.97;1675527;85;20460;-73
2022/10/15 10:46:17;;;;;;;;;;;;;;;19.96;43.18;99543.16;1652834;85;20485;-73
2022/10/15 10:48:48;;;;;;;;;;;;;;;19.95;43.17;99534.75;1683248;85;21210;-72
2022/10/15 10:51:18;;;;;;;;;;;;;;;19.95;43.13;99534.75;1667240;85;20086;-73
2022/10/15 10:53:56;;;;;;;;;;;;;;;19.93;43.05;99554.41;1662384;85;20143;-72
2022/10/15 10:56:41;;;;;;;;;;;;;;;19.86;43.22;99529.91;1666777;85;20115;-72
2022/10/15 10:59:29;;;;;;;;;;;;;;;19.79;43.29;99536.73;1670463;84;20117;-72
2022/10/15 11:01:59;;;;;;;;;;;;;;;19.60;43.58;99534.61;1664712;84;21267;-73
2022/10/15 11:04:32;;;;;;;;;;;;;;;19.44;43.84;99533.88;1654861;85;20455;-72
2022/10/15 11:07:05;;;;;;;;;;;;;;;19.40;44.23;99551.54;1688649;84;20106;-73
2022/10/15 11:09:41;;;;;;;;;;;;;;;19.42;43.91;99530.55;1680601;84;20445;-73
2022/10/15 11:12:25;;;;;;;;;;;;;;;19.39;44.02;99535.59;1664128;84;20469;-72
2022/10/15 11:15:13;;;;;;;;;;;;;;;19.41;43.98;99549.67;1655967;85;21587;-73
2022/10/15 11:17:55;;;;;;;;;;;;;;;19.37;43.85;99526.36;1667047;84;20086;-73
2022/10/15 11:20:25;;;;;;;;;;;;;;;19.39;44.21;99532.38;1669519;84;20126;-73
2022/10/15 11:23:14;;;;;;;;;;;;;;;19.40;43.73;99525.91;1664852;85;20099;-73
2022/10/15 11:25:44;;;;;;;;;;;;;;;19.32;43.85;99523.48;1658253;84;20086;-72
2022/10/15 11:28:46;;;;;;;;;;;;;;;19.31;44.04;99534.52;1680013;84;21383;-73
2022/10/15 11:31:25;;;;;;;;;;;;;;;19.29;43.97;99532.57;1666028;84;20094;-71
2022/10/15 11:34:13;;;;;;;;;;;;;;;19.23;43.79;99523.50;1670871;84;20472;-73
2022/10/15 11:36:46;;;;;;;;;;;;;;;19.23;44.24;99527.55;1655958;85;20420;-72
2022/10/15 11:39:31;;;;;;;;;;;;;;;19.26;44.05;99528.45;1657049;85;20139;-73
2022/10/15 11:42:22;;;;;;;;;;;;;;;19.28;43.97;99530.91;1678237;85;21266;-73
2022/10/15 11:45:13;;;;;;;;;;;;;;;19.24;44.04;99528.37;1664153;85;20497;-73
2022/10/15 11:47:51;;;;;;;;;;;;;;;19.23;44.01;99530.77;1669468;85;20130;-72
2022/10/15 11:50:38;;;;;;;;;;;;;;;19.17;44.14;99524.39;1661850;85;20459;-72
2022/10/15 11:53:31;;;;;;;;;;;;;;;19.18;44.35;99532.80;1665749;85;20160;-72
2022/10/15 11:56:01;;;;;;;;;;;;;;;19.23;44.11;99528.90;1653925;85;21182;-73
2022/10/15 11:58:46;;;;;;;;;;;;;;;19.27;43.94;99529.25;1683704;85;20500;-72
2022/10/15 12:01:36;;;;;;;;;;;;;;;19.30;43.89;99532.34;1669912;85;20091;-73
2022/10/15 12:04:14;;;;;;;;;;;;;;;19.31;43.66;99546.65;1662546;85;20087;-73
2022/10/15 12:06:44;;;;;;;;;;;;;;;19.29;43.65;99529.36;1683752;85;20448;-73
2022/10/15 12:09:14;;;;;;;;;;;;;;;19.22;43.61;99542.07;1676092;85;21147;-73
2022/10/15 12:11:52;;;;;;;;;;;;;;;19.11;43.83;99534.72;1660620;85;20169;-73
2022/10/15 12:14:38;;;;;;;;;;;;;;;19.02;44.01;99536.91;1668617;84;20118;-73
2022/10/15 12:17:31;;;;;;;;;;;;;;;18.99;44.26;99535.16;1667717;84;20145;-73
2022/10/15 12:20:14;;;;;;;;;;;;;;;18.93;44.31;99534.18;1683726;85;20115;-73
2022/10/15 12:22:49;;;;;;;;;;;;;;;18.87;44.29;99527.52;1670168;85;21904;-73
2022/10/15 12:25:37;;;;;;;;;;;;;;;18.85;44.28;99522.34;1655300;85;20079;-72
2022/10/15 12:28:10;;;;;;;;;;;;;;;18.84;44.30;99517.18;1665119;85;20075;-73
2022/10/15 12:30:36;;;;;;;;;;;;;;;18.82;44.56;99535.45;1651478;85;20095;-72
2022/10/15 12:33:25;;;;;;;;;;;;;;;18.76;44.37;99514.25;1677715;84;20113;-73
2022/10/15 12:35:57;;;;;;;;;;;;;;;18.74;44.66;99516.35;1644255;85;21813;-73
2022/10/15 12:38:31;;;;;;;;;;;;;;;18.72;44.56;99531.09;1678906;85;20450;-73
2022/10/15 12:41:07;;;;;;;;;;;;;;;18.67;44.45;99512.05;1678466;85;20427;-73
2022/10/15 12:43:37;;;;;;;;;;;;;;;18.66;44.43;99519.84;1708696;84;20962;-73
2022/10/15 12:46:05;;;;;;;;;;;;;;;18.62;44.42;99525.36;1697116;84;20486;-73
2022/10/15 12:48:36;;;;;;;;;;;;;;;18.60;44.48;99522.06;1679213;85;21115;-73
2022/10/15 12:51:24;;;;;;;;;;;;;;;18.53;44.80;99522.65;1679182;85;20154;-73
2022/10/15 12:53:52;;;;;;;;;;;;;;;18.49;44.79;99523.09;1655353;85;20450;-73
2022/10/15 12:56:23;;;;;;;;;;;;;;;18.47;44.73;99521.66;1679179;85;20096;-73
2022/10/15 12:58:52;;;;;;;;;;;;;;;18.44;44.69;99521.55;1679265;85;20461;-73
2022/10/15 13:01:22;;;;;;;;;;;;;;;18.41;44.77;99516.59;1679221;85;21136;-73
2022/10/15 13:03:51;;;;;;;;;;;;;;;18.37;44.87;99504.63;1679189;85;20156;-73
2022/10/15 13:06:27;;;;;;;;;;;;;;;18.37;45.03;99530.73;1679227;85;20409;-72
2022/10/15 13:09:04;;;;;;;;;;;;;;;18.32;44.86;99515.23;1669048;85;20226;-73
2022/10/15 13:11:42;;;;;;;;;;;;;;;18.26;45.11;99516.09;1679284;85;20124;-73
2022/10/15 13:14:31;;;;;;;;;;;;;;;18.18;45.26;99510.98;1679187;85;21149;-73